Dallas, Texas
Traffic Map
Current Weather Conditions
Dallas, Texas
Overcast
Overcast
75°
Feels Like: 75°
Wind Chill: 75° Ceiling: 6500
Heat Index: 75° Visibility: 10mi
Dew Point: 48° Wind: 14mph
Humidity: 38% Direction: 180° (S)
Pressure: 30.07in Gusts: 20mph
Raw Report DataKDAL 202053Z 18012G17KT 10SM FEW040 OVC065 24/09 A3007 RMK AO2 PK WND 19026/2031 SLP176 T02390089 56016
Traffic Incident Summary
Active as of:
Severity:
Category:
InformationThere was an issue retrieving the traffic information for this location. Please try a different location or try again shortly.
Advertisements
At Last! Intellicast now available for iPhone and Android